sensor_id;sensor_type;location;lat;lon;timestamp;P1;durP1;ratioP1;P2;durP2;ratioP2
30818;SDS011;17546;42.674;23.284;2023-11-21T00:02:19;44.85;;;19.90;;
30818;SDS011;17546;42.674;23.284;2023-11-21T00:04:45;39.33;;;18.98;;
30818;SDS011;17546;42.674;23.284;2023-11-21T00:07:12;49.63;;;20.30;;
30818;SDS011;17546;42.674;23.284;2023-11-21T00:09:37;47.67;;;20.95;;
30818;SDS011;17546;42.674;23.284;2023-11-21T00:12:04;39.17;;;19.58;;
30818;SDS011;17546;42.674;23.284;2023-11-21T00:14:30;46.85;;;20.27;;
30818;SDS011;17546;42.674;23.284;2023-11-21T00:16:55;50.20;;;20.92;;
30818;SDS011;17546;42.674;23.284;2023-11-21T00:19:21;51.35;;;21.05;;
30818;SDS011;17546;42.674;23.284;2023-11-21T00:21:46;44.65;;;20.75;;
30818;SDS011;17546;42.674;23.284;2023-11-21T00:24:12;51.55;;;20.33;;
30818;SDS011;17546;42.674;23.284;2023-11-21T00:26:39;48.80;;;19.80;;
30818;SDS011;17546;42.674;23.284;2023-11-21T00:29:05;50.92;;;20.30;;
30818;SDS011;17546;42.674;23.284;2023-11-21T00:31:33;46.25;;;20.08;;
30818;SDS011;17546;42.674;23.284;2023-11-21T00:34:02;44.15;;;19.95;;
30818;SDS011;17546;42.674;23.284;2023-11-21T00:36:28;46.40;;;18.55;;
30818;SDS011;17546;42.674;23.284;2023-11-21T00:38:54;43.47;;;19.60;;
30818;SDS011;17546;42.674;23.284;2023-11-21T00:41:21;41.47;;;19.08;;
30818;SDS011;17546;42.674;23.284;2023-11-21T00:43:47;49.78;;;19.60;;
30818;SDS011;17546;42.674;23.284;2023-11-21T00:46:12;40.67;;;20.25;;
30818;SDS011;17546;42.674;23.284;2023-11-21T00:48:38;43.47;;;20.13;;
30818;SDS011;17546;42.674;23.284;2023-11-21T00:51:04;50.05;;;20.35;;
30818;SDS011;17546;42.674;23.284;2023-11-21T00:53:31;46.85;;;22.10;;
30818;SDS011;17546;42.674;23.284;2023-11-21T00:55:56;47.15;;;21.90;;
30818;SDS011;17546;42.674;23.284;2023-11-21T00:58:25;46.80;;;21.25;;
30818;SDS011;17546;42.674;23.284;2023-11-21T01:00:51;59.72;;;21.50;;
30818;SDS011;17546;42.674;23.284;2023-11-21T01:03:16;45.50;;;21.65;;
30818;SDS011;17546;42.674;23.284;2023-11-21T01:05:42;49.80;;;24.05;;
30818;SDS011;17546;42.674;23.284;2023-11-21T01:08:07;53.22;;;23.70;;
30818;SDS011;17546;42.674;23.284;2023-11-21T01:10:33;49.55;;;21.63;;
30818;SDS011;17546;42.674;23.284;2023-11-21T01:13:02;43.17;;;20.88;;
30818;SDS011;17546;42.674;23.284;2023-11-21T01:15:31;48.60;;;22.35;;
30818;SDS011;17546;42.674;23.284;2023-11-21T01:17:57;44.08;;;20.83;;
30818;SDS011;17546;42.674;23.284;2023-11-21T01:20:22;52.13;;;22.67;;
30818;SDS011;17546;42.674;23.284;2023-11-21T01:22:48;56.05;;;22.02;;
30818;SDS011;17546;42.674;23.284;2023-11-21T01:25:14;47.53;;;21.65;;
30818;SDS011;17546;42.674;23.284;2023-11-21T01:27:41;46.17;;;20.90;;
30818;SDS011;17546;42.674;23.284;2023-11-21T01:30:07;55.65;;;20.95;;
30818;SDS011;17546;42.674;23.284;2023-11-21T01:32:34;46.92;;;21.58;;
30818;SDS011;17546;42.674;23.284;2023-11-21T01:35:05;38.92;;;19.75;;
30818;SDS011;17546;42.674;23.284;2023-11-21T01:37:31;47.13;;;21.33;;
30818;SDS011;17546;42.674;23.284;2023-11-21T01:39:58;45.80;;;20.02;;
30818;SDS011;17546;42.674;23.284;2023-11-21T01:42:24;43.10;;;18.77;;
30818;SDS011;17546;42.674;23.284;2023-11-21T01:44:49;40.88;;;17.25;;
30818;SDS011;17546;42.674;23.284;2023-11-21T01:47:15;34.65;;;17.05;;
30818;SDS011;17546;42.674;23.284;2023-11-21T01:49:43;39.65;;;18.08;;
30818;SDS011;17546;42.674;23.284;2023-11-21T01:52:10;34.60;;;16.77;;
30818;SDS011;17546;42.674;23.284;2023-11-21T01:54:37;38.65;;;18.10;;
30818;SDS011;17546;42.674;23.284;2023-11-21T01:57:03;33.47;;;16.90;;
30818;SDS011;17546;42.674;23.284;2023-11-21T01:59:35;35.92;;;16.55;;
30818;SDS011;17546;42.674;23.284;2023-11-21T02:02:04;39.05;;;17.05;;
30818;SDS011;17546;42.674;23.284;2023-11-21T02:04:32;42.65;;;16.75;;
30818;SDS011;17546;42.674;23.284;2023-11-21T02:06:58;31.50;;;15.02;;
30818;SDS011;17546;42.674;23.284;2023-11-21T02:09:25;33.33;;;15.65;;
30818;SDS011;17546;42.674;23.284;2023-11-21T02:11:55;35.80;;;15.45;;
30818;SDS011;17546;42.674;23.284;2023-11-21T02:14:21;29.88;;;14.98;;
30818;SDS011;17546;42.674;23.284;2023-11-21T02:16:50;30.98;;;14.45;;
30818;SDS011;17546;42.674;23.284;2023-11-21T02:19:25;32.40;;;14.82;;
30818;SDS011;17546;42.674;23.284;2023-11-21T02:21:51;37.42;;;15.75;;
30818;SDS011;17546;42.674;23.284;2023-11-21T02:24:21;31.67;;;14.60;;
30818;SDS011;17546;42.674;23.284;2023-11-21T02:26:50;32.15;;;14.90;;
30818;SDS011;17546;42.674;23.284;2023-11-21T02:29:20;31.58;;;13.90;;
30818;SDS011;17546;42.674;23.284;2023-11-21T02:31:52;30.83;;;14.65;;
30818;SDS011;17546;42.674;23.284;2023-11-21T02:37:15;36.75;;;15.23;;
30818;SDS011;17546;42.674;23.284;2023-11-21T02:39:40;34.75;;;14.15;;
30818;SDS011;17546;42.674;23.284;2023-11-21T02:42:06;31.90;;;13.57;;
30818;SDS011;17546;42.674;23.284;2023-11-21T02:44:32;33.03;;;14.18;;
30818;SDS011;17546;42.674;23.284;2023-11-21T02:46:57;32.72;;;13.48;;
30818;SDS011;17546;42.674;23.284;2023-11-21T02:49:23;31.65;;;14.52;;
30818;SDS011;17546;42.674;23.284;2023-11-21T02:51:48;30.77;;;14.52;;
30818;SDS011;17546;42.674;23.284;2023-11-21T02:54:14;28.10;;;14.25;;
30818;SDS011;17546;42.674;23.284;2023-11-21T02:56:40;36.65;;;13.63;;
30818;SDS011;17546;42.674;23.284;2023-11-21T02:59:05;30.92;;;13.85;;
30818;SDS011;17546;42.674;23.284;2023-11-21T03:01:31;29.58;;;15.23;;
30818;SDS011;17546;42.674;23.284;2023-11-21T03:03:56;34.72;;;14.68;;
30818;SDS011;17546;42.674;23.284;2023-11-21T03:06:22;31.25;;;15.48;;
30818;SDS011;17546;42.674;23.284;2023-11-21T03:08:49;31.88;;;14.27;;
30818;SDS011;17546;42.674;23.284;2023-11-21T03:11:15;32.60;;;14.77;;
30818;SDS011;17546;42.674;23.284;2023-11-21T03:13:41;34.88;;;15.23;;
30818;SDS011;17546;42.674;23.284;2023-11-21T03:16:10;32.58;;;14.95;;
30818;SDS011;17546;42.674;23.284;2023-11-21T03:18:37;30.63;;;15.13;;
30818;SDS011;17546;42.674;23.284;2023-11-21T03:21:07;34.50;;;15.77;;
30818;SDS011;17546;42.674;23.284;2023-11-21T03:23:36;39.67;;;17.20;;
30818;SDS011;17546;42.674;23.284;2023-11-21T03:26:02;37.97;;;18.73;;
30818;SDS011;17546;42.674;23.284;2023-11-21T03:28:27;34.15;;;18.55;;
30818;SDS011;17546;42.674;23.284;2023-11-21T03:30:53;34.38;;;16.70;;
30818;SDS011;17546;42.674;23.284;2023-11-21T03:33:19;39.40;;;16.90;;
30818;SDS011;17546;42.674;23.284;2023-11-21T03:35:44;30.20;;;16.38;;
30818;SDS011;17546;42.674;23.284;2023-11-21T03:38:10;35.40;;;15.32;;
30818;SDS011;17546;42.674;23.284;2023-11-21T03:40:35;30.00;;;14.38;;
30818;SDS011;17546;42.674;23.284;2023-11-21T03:43:01;28.15;;;14.20;;
30818;SDS011;17546;42.674;23.284;2023-11-21T03:45:26;31.55;;;14.93;;
30818;SDS011;17546;42.674;23.284;2023-11-21T03:47:52;34.20;;;15.43;;
30818;SDS011;17546;42.674;23.284;2023-11-21T03:50:22;36.80;;;16.25;;
30818;SDS011;17546;42.674;23.284;2023-11-21T03:52:48;35.53;;;15.57;;
30818;SDS011;17546;42.674;23.284;2023-11-21T03:55:13;34.70;;;16.67;;
30818;SDS011;17546;42.674;23.284;2023-11-21T03:57:40;35.03;;;17.95;;
30818;SDS011;17546;42.674;23.284;2023-11-21T04:00:06;39.72;;;17.23;;
30818;SDS011;17546;42.674;23.284;2023-11-21T04:02:34;40.55;;;19.85;;
30818;SDS011;17546;42.674;23.284;2023-11-21T04:05:00;48.92;;;20.23;;
30818;SDS011;17546;42.674;23.284;2023-11-21T04:07:26;47.45;;;21.80;;
30818;SDS011;17546;42.674;23.284;2023-11-21T04:09:52;51.42;;;21.13;;
30818;SDS011;17546;42.674;23.284;2023-11-21T04:12:18;52.70;;;22.88;;
30818;SDS011;17546;42.674;23.284;2023-11-21T04:14:44;52.30;;;24.38;;
30818;SDS011;17546;42.674;23.284;2023-11-21T04:17:09;64.18;;;25.25;;
30818;SDS011;17546;42.674;23.284;2023-11-21T04:19:35;57.22;;;25.48;;
30818;SDS011;17546;42.674;23.284;2023-11-21T04:22:00;59.08;;;25.13;;
30818;SDS011;17546;42.674;23.284;2023-11-21T04:24:27;54.35;;;24.80;;
30818;SDS011;17546;42.674;23.284;2023-11-21T04:26:53;65.72;;;24.88;;
30818;SDS011;17546;42.674;23.284;2023-11-21T04:29:18;57.17;;;25.45;;
30818;SDS011;17546;42.674;23.284;2023-11-21T04:31:44;56.00;;;25.33;;
30818;SDS011;17546;42.674;23.284;2023-11-21T04:34:10;58.92;;;25.52;;
30818;SDS011;17546;42.674;23.284;2023-11-21T04:36:35;49.75;;;23.85;;
30818;SDS011;17546;42.674;23.284;2023-11-21T04:39:00;56.10;;;24.10;;
30818;SDS011;17546;42.674;23.284;2023-11-21T04:41:26;56.95;;;23.30;;
30818;SDS011;17546;42.674;23.284;2023-11-21T04:43:51;54.85;;;22.83;;
30818;SDS011;17546;42.674;23.284;2023-11-21T04:46:17;56.60;;;23.73;;
30818;SDS011;17546;42.674;23.284;2023-11-21T04:48:42;49.55;;;21.40;;
30818;SDS011;17546;42.674;23.284;2023-11-21T04:51:08;44.85;;;21.20;;
30818;SDS011;17546;42.674;23.284;2023-11-21T04:53:49;46.53;;;23.00;;
30818;SDS011;17546;42.674;23.284;2023-11-21T04:56:15;54.95;;;22.77;;
30818;SDS011;17546;42.674;23.284;2023-11-21T04:58:41;44.78;;;23.30;;
30818;SDS011;17546;42.674;23.284;2023-11-21T05:01:07;48.15;;;21.52;;
30818;SDS011;17546;42.674;23.284;2023-11-21T05:03:33;56.78;;;22.35;;
30818;SDS011;17546;42.674;23.284;2023-11-21T05:06:01;49.42;;;23.15;;
30818;SDS011;17546;42.674;23.284;2023-11-21T05:08:27;48.75;;;22.08;;
30818;SDS011;17546;42.674;23.284;2023-11-21T05:10:52;53.95;;;23.05;;
30818;SDS011;17546;42.674;23.284;2023-11-21T05:13:18;52.42;;;23.45;;
30818;SDS011;17546;42.674;23.284;2023-11-21T05:15:45;58.22;;;25.08;;
30818;SDS011;17546;42.674;23.284;2023-11-21T05:18:11;52.10;;;23.52;;
30818;SDS011;17546;42.674;23.284;2023-11-21T05:20:38;55.40;;;24.27;;
30818;SDS011;17546;42.674;23.284;2023-11-21T05:23:04;59.67;;;25.83;;
30818;SDS011;17546;42.674;23.284;2023-11-21T05:25:30;57.83;;;23.80;;
30818;SDS011;17546;42.674;23.284;2023-11-21T05:27:55;53.58;;;25.17;;
30818;SDS011;17546;42.674;23.284;2023-11-21T05:30:21;54.72;;;25.40;;
30818;SDS011;17546;42.674;23.284;2023-11-21T05:32:47;58.28;;;25.52;;
30818;SDS011;17546;42.674;23.284;2023-11-21T05:35:12;63.53;;;26.50;;
30818;SDS011;17546;42.674;23.284;2023-11-21T05:37:42;60.45;;;27.88;;
30818;SDS011;17546;42.674;23.284;2023-11-21T05:40:08;67.50;;;28.20;;
30818;SDS011;17546;42.674;23.284;2023-11-21T05:42:36;59.95;;;27.38;;
30818;SDS011;17546;42.674;23.284;2023-11-21T05:45:03;62.00;;;27.02;;
30818;SDS011;17546;42.674;23.284;2023-11-21T06:01:10;66.60;;;26.80;;
30818;SDS011;17546;42.674;23.284;2023-11-21T06:03:38;60.90;;;27.80;;
30818;SDS011;17546;42.674;23.284;2023-11-21T06:06:05;68.90;;;28.95;;
30818;SDS011;17546;42.674;23.284;2023-11-21T06:08:31;69.80;;;28.17;;
30818;SDS011;17546;42.674;23.284;2023-11-21T06:10:57;59.95;;;27.10;;
30818;SDS011;17546;42.674;23.284;2023-11-21T06:13:22;65.30;;;28.60;;
30818;SDS011;17546;42.674;23.284;2023-11-21T06:15:50;73.00;;;28.13;;
30818;SDS011;17546;42.674;23.284;2023-11-21T06:18:16;74.18;;;29.20;;
30818;SDS011;17546;42.674;23.284;2023-11-21T06:20:44;75.75;;;31.05;;
30818;SDS011;17546;42.674;23.284;2023-11-21T06:23:10;74.40;;;30.70;;
30818;SDS011;17546;42.674;23.284;2023-11-21T06:25:36;77.57;;;31.65;;
30818;SDS011;17546;42.674;23.284;2023-11-21T06:28:01;84.43;;;34.92;;
30818;SDS011;17546;42.674;23.284;2023-11-21T06:30:27;84.68;;;32.90;;
30818;SDS011;17546;42.674;23.284;2023-11-21T06:32:54;84.05;;;35.47;;
30818;SDS011;17546;42.674;23.284;2023-11-21T06:35:20;93.15;;;38.67;;
30818;SDS011;17546;42.674;23.284;2023-11-21T06:37:45;87.65;;;39.00;;
30818;SDS011;17546;42.674;23.284;2023-11-21T06:40:13;92.15;;;40.92;;
30818;SDS011;17546;42.674;23.284;2023-11-21T06:42:40;92.75;;;39.53;;
30818;SDS011;17546;42.674;23.284;2023-11-21T06:45:09;75.93;;;35.75;;
30818;SDS011;17546;42.674;23.284;2023-11-21T06:47:36;85.45;;;37.65;;
30818;SDS011;17546;42.674;23.284;2023-11-21T06:50:03;88.43;;;38.40;;
30818;SDS011;17546;42.674;23.284;2023-11-21T06:52:29;83.85;;;36.85;;
30818;SDS011;17546;42.674;23.284;2023-11-21T06:54:54;92.93;;;39.22;;
30818;SDS011;17546;42.674;23.284;2023-11-21T06:57:19;81.57;;;38.05;;
30818;SDS011;17546;42.674;23.284;2023-11-21T06:59:45;86.38;;;41.60;;
30818;SDS011;17546;42.674;23.284;2023-11-21T07:02:10;67.60;;;33.08;;
30818;SDS011;17546;42.674;23.284;2023-11-21T07:04:36;62.72;;;29.35;;
30818;SDS011;17546;42.674;23.284;2023-11-21T07:07:02;68.10;;;33.38;;
30818;SDS011;17546;42.674;23.284;2023-11-21T07:09:28;78.78;;;34.47;;
30818;SDS011;17546;42.674;23.284;2023-11-21T07:11:55;77.32;;;34.58;;
30818;SDS011;17546;42.674;23.284;2023-11-21T07:14:21;72.75;;;33.95;;
30818;SDS011;17546;42.674;23.284;2023-11-21T07:16:47;78.90;;;35.00;;
30818;SDS011;17546;42.674;23.284;2023-11-21T07:19:12;65.43;;;32.60;;
30818;SDS011;17546;42.674;23.284;2023-11-21T07:21:39;72.53;;;33.53;;
30818;SDS011;17546;42.674;23.284;2023-11-21T07:24:05;73.28;;;33.67;;
30818;SDS011;17546;42.674;23.284;2023-11-21T07:26:31;70.07;;;32.45;;
30818;SDS011;17546;42.674;23.284;2023-11-21T07:28:58;70.43;;;31.33;;
30818;SDS011;17546;42.674;23.284;2023-11-21T07:31:24;70.07;;;32.28;;
30818;SDS011;17546;42.674;23.284;2023-11-21T07:33:50;75.45;;;34.88;;
30818;SDS011;17546;42.674;23.284;2023-11-21T07:36:16;85.15;;;32.42;;
30818;SDS011;17546;42.674;23.284;2023-11-21T07:38:43;76.72;;;32.22;;
30818;SDS011;17546;42.674;23.284;2023-11-21T07:41:09;66.85;;;31.88;;
30818;SDS011;17546;42.674;23.284;2023-11-21T07:43:36;75.60;;;32.00;;
30818;SDS011;17546;42.674;23.284;2023-11-21T07:46:02;71.45;;;31.30;;
30818;SDS011;17546;42.674;23.284;2023-11-21T07:48:31;75.35;;;32.35;;
30818;SDS011;17546;42.674;23.284;2023-11-21T07:50:57;78.60;;;32.53;;
30818;SDS011;17546;42.674;23.284;2023-11-21T07:53:24;75.20;;;33.30;;
30818;SDS011;17546;42.674;23.284;2023-11-21T07:55:55;76.70;;;32.35;;
30818;SDS011;17546;42.674;23.284;2023-11-21T07:58:24;65.50;;;29.65;;
30818;SDS011;17546;42.674;23.284;2023-11-21T08:00:49;57.38;;;29.00;;
30818;SDS011;17546;42.674;23.284;2023-11-21T08:03:15;65.78;;;29.30;;
30818;SDS011;17546;42.674;23.284;2023-11-21T08:05:42;66.82;;;28.88;;
30818;SDS011;17546;42.674;23.284;2023-11-21T08:08:07;62.92;;;30.33;;
30818;SDS011;17546;42.674;23.284;2023-11-21T08:10:33;74.38;;;30.63;;
30818;SDS011;17546;42.674;23.284;2023-11-21T08:12:58;77.82;;;31.48;;
30818;SDS011;17546;42.674;23.284;2023-11-21T08:15:24;60.80;;;30.67;;
30818;SDS011;17546;42.674;23.284;2023-11-21T08:17:50;73.50;;;31.63;;
30818;SDS011;17546;42.674;23.284;2023-11-21T08:20:15;70.72;;;29.20;;
30818;SDS011;17546;42.674;23.284;2023-11-21T08:22:42;69.75;;;29.25;;
30818;SDS011;17546;42.674;23.284;2023-11-21T08:25:08;63.08;;;28.42;;
30818;SDS011;17546;42.674;23.284;2023-11-21T08:27:35;73.72;;;28.13;;
30818;SDS011;17546;42.674;23.284;2023-11-21T08:30:00;70.88;;;29.77;;
30818;SDS011;17546;42.674;23.284;2023-11-21T08:32:28;49.63;;;24.13;;
30818;SDS011;17546;42.674;23.284;2023-11-21T08:34:55;57.40;;;25.60;;
30818;SDS011;17546;42.674;23.284;2023-11-21T08:37:20;60.75;;;27.45;;
30818;SDS011;17546;42.674;23.284;2023-11-21T08:39:52;72.45;;;29.08;;
30818;SDS011;17546;42.674;23.284;2023-11-21T08:42:18;69.70;;;31.10;;
30818;SDS011;17546;42.674;23.284;2023-11-21T08:44:43;92.35;;;36.25;;
30818;SDS011;17546;42.674;23.284;2023-11-21T08:47:09;89.70;;;36.53;;
30818;SDS011;17546;42.674;23.284;2023-11-21T08:49:34;81.70;;;34.50;;
30818;SDS011;17546;42.674;23.284;2023-11-21T08:52:00;79.15;;;32.25;;
30818;SDS011;17546;42.674;23.284;2023-11-21T08:54:28;72.28;;;31.60;;
30818;SDS011;17546;42.674;23.284;2023-11-21T08:56:54;75.07;;;31.42;;
30818;SDS011;17546;42.674;23.284;2023-11-21T08:59:20;70.68;;;29.38;;
30818;SDS011;17546;42.674;23.284;2023-11-21T09:01:46;69.95;;;28.27;;
30818;SDS011;17546;42.674;23.284;2023-11-21T09:04:14;67.32;;;27.70;;
30818;SDS011;17546;42.674;23.284;2023-11-21T09:06:39;63.85;;;27.77;;
30818;SDS011;17546;42.674;23.284;2023-11-21T09:09:05;57.80;;;27.27;;
30818;SDS011;17546;42.674;23.284;2023-11-21T09:11:31;73.00;;;28.75;;
30818;SDS011;17546;42.674;23.284;2023-11-21T09:13:59;66.47;;;28.33;;
30818;SDS011;17546;42.674;23.284;2023-11-21T09:16:25;66.25;;;27.63;;
30818;SDS011;17546;42.674;23.284;2023-11-21T09:18:50;62.95;;;29.63;;
30818;SDS011;17546;42.674;23.284;2023-11-21T09:21:17;67.80;;;29.20;;
30818;SDS011;17546;42.674;23.284;2023-11-21T09:23:44;62.97;;;29.35;;
30818;SDS011;17546;42.674;23.284;2023-11-21T09:26:11;68.35;;;29.90;;
30818;SDS011;17546;42.674;23.284;2023-11-21T09:28:36;77.32;;;30.83;;
30818;SDS011;17546;42.674;23.284;2023-11-21T09:31:07;76.60;;;28.20;;
30818;SDS011;17546;42.674;23.284;2023-11-21T09:33:34;41.85;;;18.55;;
30818;SDS011;17546;42.674;23.284;2023-11-21T09:36:00;41.80;;;18.70;;
30818;SDS011;17546;42.674;23.284;2023-11-21T09:38:26;45.03;;;17.45;;
30818;SDS011;17546;42.674;23.284;2023-11-21T09:40:54;41.08;;;16.45;;
30818;SDS011;17546;42.674;23.284;2023-11-21T09:43:20;44.95;;;17.17;;
30818;SDS011;17546;42.674;23.284;2023-11-21T09:45:47;45.95;;;16.83;;
30818;SDS011;17546;42.674;23.284;2023-11-21T09:48:28;41.00;;;17.70;;
30818;SDS011;17546;42.674;23.284;2023-11-21T09:51:01;37.35;;;16.58;;
30818;SDS011;17546;42.674;23.284;2023-11-21T09:53:28;33.78;;;16.85;;
30818;SDS011;17546;42.674;23.284;2023-11-21T09:55:58;42.22;;;16.15;;
30818;SDS011;17546;42.674;23.284;2023-11-21T09:58:25;41.95;;;18.25;;
30818;SDS011;17546;42.674;23.284;2023-11-21T10:00:55;36.28;;;16.25;;
30818;SDS011;17546;42.674;23.284;2023-11-21T10:03:24;42.97;;;17.02;;
30818;SDS011;17546;42.674;23.284;2023-11-21T10:05:50;53.90;;;18.77;;
30818;SDS011;17546;42.674;23.284;2023-11-21T10:08:18;35.92;;;15.90;;
30818;SDS011;17546;42.674;23.284;2023-11-21T10:11:06;43.70;;;16.88;;
30818;SDS011;17546;42.674;23.284;2023-11-21T10:13:37;38.33;;;16.17;;
30818;SDS011;17546;42.674;23.284;2023-11-21T10:16:04;37.55;;;15.98;;
30818;SDS011;17546;42.674;23.284;2023-11-21T10:18:32;46.60;;;15.73;;
30818;SDS011;17546;42.674;23.284;2023-11-21T10:20:59;45.45;;;16.30;;
30818;SDS011;17546;42.674;23.284;2023-11-21T10:23:25;32.97;;;15.95;;
30818;SDS011;17546;42.674;23.284;2023-11-21T10:25:52;40.25;;;15.80;;
30818;SDS011;17546;42.674;23.284;2023-11-21T10:28:18;38.13;;;16.02;;
30818;SDS011;17546;42.674;23.284;2023-11-21T10:30:44;41.65;;;18.00;;
30818;SDS011;17546;42.674;23.284;2023-11-21T10:33:09;39.95;;;17.92;;
30818;SDS011;17546;42.674;23.284;2023-11-21T10:38:19;34.60;;;17.23;;
30818;SDS011;17546;42.674;23.284;2023-11-21T10:40:49;37.00;;;15.93;;
30818;SDS011;17546;42.674;23.284;2023-11-21T10:43:15;39.90;;;15.52;;
30818;SDS011;17546;42.674;23.284;2023-11-21T10:45:41;41.95;;;16.33;;
30818;SDS011;17546;42.674;23.284;2023-11-21T10:48:15;39.35;;;16.13;;
30818;SDS011;17546;42.674;23.284;2023-11-21T10:50:41;41.80;;;17.73;;
30818;SDS011;17546;42.674;23.284;2023-11-21T10:53:07;44.45;;;18.77;;
30818;SDS011;17546;42.674;23.284;2023-11-21T10:55:33;45.47;;;19.75;;
30818;SDS011;17546;42.674;23.284;2023-11-21T10:58:00;42.10;;;19.08;;
30818;SDS011;17546;42.674;23.284;2023-11-21T11:00:28;49.80;;;20.42;;
30818;SDS011;17546;42.674;23.284;2023-11-21T11:02:55;46.50;;;19.42;;
30818;SDS011;17546;42.674;23.284;2023-11-21T11:05:21;50.42;;;21.90;;
30818;SDS011;17546;42.674;23.284;2023-11-21T11:07:56;65.72;;;21.73;;
30818;SDS011;17546;42.674;23.284;2023-11-21T11:10:33;48.40;;;21.70;;
30818;SDS011;17546;42.674;23.284;2023-11-21T11:13:00;45.25;;;22.13;;
30818;SDS011;17546;42.674;23.284;2023-11-21T11:15:26;48.83;;;22.40;;
30818;SDS011;17546;42.674;23.284;2023-11-21T11:17:53;59.13;;;21.70;;
30818;SDS011;17546;42.674;23.284;2023-11-21T11:20:22;46.58;;;20.80;;
30818;SDS011;17546;42.674;23.284;2023-11-21T11:22:53;52.95;;;20.33;;
30818;SDS011;17546;42.674;23.284;2023-11-21T11:28:18;46.55;;;21.83;;
30818;SDS011;17546;42.674;23.284;2023-11-21T11:30:54;45.72;;;20.98;;
30818;SDS011;17546;42.674;23.284;2023-11-21T11:33:59;47.33;;;21.58;;
30818;SDS011;17546;42.674;23.284;2023-11-21T11:36:49;49.50;;;20.38;;
30818;SDS011;17546;42.674;23.284;2023-11-21T11:39:26;36.72;;;17.25;;
30818;SDS011;17546;42.674;23.284;2023-11-21T11:41:54;41.92;;;19.63;;
30818;SDS011;17546;42.674;23.284;2023-11-21T11:47:14;39.60;;;18.02;;
30818;SDS011;17546;42.674;23.284;2023-11-21T11:55:06;40.53;;;18.08;;
30818;SDS011;17546;42.674;23.284;2023-11-21T11:57:35;36.10;;;17.48;;
30818;SDS011;17546;42.674;23.284;2023-11-21T12:02:38;30.83;;;17.00;;
30818;SDS011;17546;42.674;23.284;2023-11-21T12:05:14;36.78;;;16.48;;
30818;SDS011;17546;42.674;23.284;2023-11-21T12:10:22;50.90;;;21.20;;
30818;SDS011;17546;42.674;23.284;2023-11-21T12:12:57;56.80;;;25.88;;
30818;SDS011;17546;42.674;23.284;2023-11-21T12:15:24;61.50;;;27.73;;
30818;SDS011;17546;42.674;23.284;2023-11-21T12:17:50;57.97;;;27.60;;
30818;SDS011;17546;42.674;23.284;2023-11-21T12:20:20;59.05;;;27.15;;
30818;SDS011;17546;42.674;23.284;2023-11-21T12:22:47;62.17;;;28.45;;
30818;SDS011;17546;42.674;23.284;2023-11-21T12:25:18;57.40;;;29.15;;
30818;SDS011;17546;42.674;23.284;2023-11-21T12:27:45;64.65;;;30.38;;
30818;SDS011;17546;42.674;23.284;2023-11-21T12:30:12;69.15;;;30.55;;
30818;SDS011;17546;42.674;23.284;2023-11-21T12:32:42;67.60;;;30.98;;
30818;SDS011;17546;42.674;23.284;2023-11-21T12:35:11;75.50;;;32.30;;
30818;SDS011;17546;42.674;23.284;2023-11-21T12:37:38;75.50;;;34.65;;
30818;SDS011;17546;42.674;23.284;2023-11-21T12:40:05;81.07;;;36.83;;
30818;SDS011;17546;42.674;23.284;2023-11-21T12:42:33;82.03;;;37.35;;
30818;SDS011;17546;42.674;23.284;2023-11-21T12:47:44;70.00;;;35.10;;
30818;SDS011;17546;42.674;23.284;2023-11-21T12:50:13;69.85;;;34.72;;
30818;SDS011;17546;42.674;23.284;2023-11-21T12:52:42;73.85;;;36.88;;
30818;SDS011;17546;42.674;23.284;2023-11-21T12:55:15;68.70;;;32.58;;
30818;SDS011;17546;42.674;23.284;2023-11-21T12:57:43;67.20;;;32.70;;
30818;SDS011;17546;42.674;23.284;2023-11-21T13:00:15;63.22;;;32.08;;
30818;SDS011;17546;42.674;23.284;2023-11-21T13:02:51;73.53;;;32.00;;
30818;SDS011;17546;42.674;23.284;2023-11-21T13:05:26;62.33;;;29.70;;
30818;SDS011;17546;42.674;23.284;2023-11-21T13:07:56;57.97;;;29.15;;
30818;SDS011;17546;42.674;23.284;2023-11-21T13:10:25;68.70;;;31.50;;
30818;SDS011;17546;42.674;23.284;2023-11-21T13:12:54;67.18;;;32.20;;
30818;SDS011;17546;42.674;23.284;2023-11-21T13:15:23;58.72;;;30.77;;
30818;SDS011;17546;42.674;23.284;2023-11-21T13:17:49;59.28;;;31.08;;
30818;SDS011;17546;42.674;23.284;2023-11-21T13:20:16;62.85;;;31.05;;
30818;SDS011;17546;42.674;23.284;2023-11-21T13:22:48;59.95;;;32.10;;
30818;SDS011;17546;42.674;23.284;2023-11-21T13:25:16;66.88;;;31.17;;
30818;SDS011;17546;42.674;23.284;2023-11-21T13:27:44;64.20;;;31.70;;
30818;SDS011;17546;42.674;23.284;2023-11-21T13:30:11;75.68;;;32.13;;
30818;SDS011;17546;42.674;23.284;2023-11-21T13:32:40;64.68;;;33.42;;
30818;SDS011;17546;42.674;23.284;2023-11-21T13:35:11;66.03;;;32.35;;
30818;SDS011;17546;42.674;23.284;2023-11-21T13:37:46;64.60;;;33.50;;
30818;SDS011;17546;42.674;23.284;2023-11-21T13:40:15;67.38;;;32.83;;
30818;SDS011;17546;42.674;23.284;2023-11-21T13:42:47;66.85;;;35.13;;
30818;SDS011;17546;42.674;23.284;2023-11-21T13:45:13;63.33;;;34.97;;
30818;SDS011;17546;42.674;23.284;2023-11-21T13:47:39;79.22;;;37.45;;
30818;SDS011;17546;42.674;23.284;2023-11-21T13:50:06;72.93;;;39.25;;
30818;SDS011;17546;42.674;23.284;2023-11-21T13:52:42;66.38;;;39.30;;
30818;SDS011;17546;42.674;23.284;2023-11-21T13:55:10;70.10;;;42.35;;
30818;SDS011;17546;42.674;23.284;2023-11-21T13:57:40;83.03;;;46.20;;
30818;SDS011;17546;42.674;23.284;2023-11-21T14:00:09;84.85;;;45.28;;
30818;SDS011;17546;42.674;23.284;2023-11-21T14:02:56;79.82;;;45.45;;
30818;SDS011;17546;42.674;23.284;2023-11-21T14:05:25;83.05;;;46.20;;
30818;SDS011;17546;42.674;23.284;2023-11-21T14:07:57;83.28;;;45.65;;
30818;SDS011;17546;42.674;23.284;2023-11-21T14:10:30;88.45;;;46.78;;
30818;SDS011;17546;42.674;23.284;2023-11-21T14:13:07;81.88;;;47.28;;
30818;SDS011;17546;42.674;23.284;2023-11-21T14:15:35;85.18;;;46.35;;
30818;SDS011;17546;42.674;23.284;2023-11-21T14:18:07;82.75;;;46.80;;
30818;SDS011;17546;42.674;23.284;2023-11-21T14:20:36;86.20;;;48.58;;
30818;SDS011;17546;42.674;23.284;2023-11-21T14:23:05;79.53;;;48.28;;
30818;SDS011;17546;42.674;23.284;2023-11-21T14:25:34;84.07;;;50.33;;
30818;SDS011;17546;42.674;23.284;2023-11-21T14:30:32;91.13;;;50.92;;
30818;SDS011;17546;42.674;23.284;2023-11-21T14:33:03;87.13;;;50.03;;
30818;SDS011;17546;42.674;23.284;2023-11-21T14:35:29;98.80;;;51.30;;
30818;SDS011;17546;42.674;23.284;2023-11-21T14:37:58;88.30;;;51.33;;
30818;SDS011;17546;42.674;23.284;2023-11-21T14:40:25;99.25;;;52.25;;
30818;SDS011;17546;42.674;23.284;2023-11-21T14:42:52;93.28;;;52.10;;
30818;SDS011;17546;42.674;23.284;2023-11-21T14:45:19;86.53;;;51.20;;
30818;SDS011;17546;42.674;23.284;2023-11-21T14:47:48;86.55;;;47.83;;
30818;SDS011;17546;42.674;23.284;2023-11-21T14:50:52;88.43;;;46.25;;
30818;SDS011;17546;42.674;23.284;2023-11-21T14:53:26;96.50;;;44.38;;